createdAt,value
2023-05-19T00:01:08.698Z,2.38
2023-05-19T00:03:40.736Z,3.63
2023-05-19T00:06:12.562Z,2.30
2023-05-19T00:08:43.198Z,2.35
2023-05-19T00:11:23.136Z,2.55
2023-05-19T00:13:56.823Z,2.72
2023-05-19T00:16:31.572Z,3.75
2023-05-19T00:19:05.914Z,2.80
2023-05-19T00:21:37.912Z,2.42
2023-05-19T00:24:12.278Z,3.95
2023-05-19T00:26:51.166Z,2.70
2023-05-19T00:29:21.434Z,2.72
2023-05-19T00:31:54.149Z,2.85
2023-05-19T00:34:26.660Z,2.55
2023-05-19T00:36:57.294Z,2.80
2023-05-19T00:42:00.387Z,2.38
2023-05-19T00:44:32.025Z,2.70
2023-05-19T00:47:02.764Z,2.75
2023-05-19T00:49:36.972Z,2.90
2023-05-19T00:52:09.779Z,2.22
2023-05-19T00:54:43.350Z,2.30
2023-05-19T00:57:19.881Z,2.67
2023-05-19T00:59:50.582Z,2.10
2023-05-19T01:02:21.823Z,2.42
2023-05-19T01:04:53.776Z,2.38
2023-05-19T01:07:25.683Z,2.60
2023-05-19T01:09:56.227Z,2.85
2023-05-19T01:15:01.779Z,2.15
2023-05-19T01:17:40.576Z,2.53
2023-05-19T01:20:20.049Z,3.33
2023-05-19T01:23:24.136Z,2.60
2023-05-19T01:26:16.344Z,2.80
2023-05-19T01:29:31.413Z,2.05
2023-05-19T01:32:11.455Z,2.30
2023-05-19T01:34:47.676Z,2.47
2023-05-19T01:37:19.239Z,2.67
2023-05-19T01:39:51.391Z,4.13
2023-05-19T01:42:23.856Z,2.17
2023-05-19T01:44:55.458Z,2.38
2023-05-19T01:47:32.025Z,2.45
2023-05-19T01:50:19.664Z,2.30
2023-05-19T01:52:50.203Z,2.70
2023-05-19T01:58:06.181Z,2.40
2023-05-19T02:00:48.450Z,2.15
2023-05-19T02:03:36.313Z,2.30
2023-05-19T02:06:19.996Z,2.22
2023-05-19T02:09:03.921Z,3.90
2023-05-19T02:11:39.775Z,2.35
2023-05-19T02:14:16.756Z,2.58
2023-05-19T02:16:50.800Z,3.00
2023-05-19T02:19:29.591Z,2.65
2023-05-19T02:21:59.946Z,2.50
2023-05-19T02:24:32.566Z,2.67
2023-05-19T02:27:03.323Z,3.20
2023-05-19T02:29:35.976Z,2.65
2023-05-19T02:32:06.335Z,3.13
2023-05-19T02:37:09.597Z,2.25
2023-05-19T02:39:43.363Z,2.30
2023-05-19T02:42:17.939Z,2.75
2023-05-19T02:44:48.499Z,2.55
2023-05-19T02:47:19.258Z,2.90
2023-05-19T02:49:56.104Z,2.63
2023-05-19T02:54:56.695Z,4.07
2023-05-19T03:00:00.976Z,3.22
2023-05-19T03:02:34.679Z,2.50
2023-05-19T03:05:14.584Z,2.90
2023-05-19T03:07:47.782Z,2.45
2023-05-19T03:10:18.154Z,2.88
2023-05-19T03:12:51.154Z,2.80
2023-05-19T03:15:24.836Z,4.25
2023-05-19T03:17:55.377Z,2.80
2023-05-19T03:22:58.278Z,2.92
2023-05-19T03:25:30.220Z,2.60
2023-05-19T03:28:02.962Z,3.15
2023-05-19T03:30:33.495Z,3.35
2023-05-19T03:33:07.592Z,2.85
2023-05-19T03:35:40.734Z,2.67
2023-05-19T03:38:12.086Z,3.15
2023-05-19T03:40:42.439Z,2.30
2023-05-19T03:43:16.494Z,2.53
2023-05-19T03:45:46.812Z,2.60
2023-05-19T03:48:21.187Z,2.97
2023-05-19T03:50:56.084Z,2.75
2023-05-19T03:53:30.595Z,2.60
2023-05-19T03:56:04.716Z,3.10
2023-05-19T03:58:37.271Z,2.72
2023-05-19T04:01:07.945Z,2.78
2023-05-19T04:03:39.209Z,3.00
2023-05-19T04:06:15.856Z,3.42
2023-05-19T04:08:47.257Z,2.53
2023-05-19T04:11:17.657Z,2.45
2023-05-19T04:13:52.169Z,2.83
2023-05-19T04:16:25.707Z,3.40
2023-05-19T04:18:58.658Z,3.03
2023-05-19T04:21:31.646Z,3.20
2023-05-19T04:24:02.935Z,2.85
2023-05-19T04:26:36.337Z,3.30
2023-05-19T04:31:37.787Z,2.83
2023-05-19T04:34:08.313Z,2.83
2023-05-19T04:39:14.714Z,3.38
2023-05-19T04:41:45.369Z,3.28
2023-05-19T04:44:18.636Z,3.22
2023-05-19T04:46:49.071Z,3.17
2023-05-19T04:49:19.470Z,3.38
2023-05-19T04:51:56.852Z,2.85
2023-05-19T04:54:29.497Z,2.78
2023-05-19T04:57:02.598Z,2.53
2023-05-19T04:59:34.341Z,2.25
2023-05-19T05:02:07.174Z,2.40
2023-05-19T05:04:37.967Z,2.03
2023-05-19T05:07:11.259Z,3.08
2023-05-19T05:09:41.556Z,2.03
2023-05-19T05:12:15.865Z,2.97
2023-05-19T05:14:49.257Z,2.10
2023-05-19T05:17:29.049Z,2.40
2023-05-19T05:20:06.410Z,2.33
2023-05-19T05:22:40.110Z,2.05
2023-05-19T05:25:12.392Z,1.83
2023-05-19T05:27:45.781Z,2.22
2023-05-19T05:30:16.747Z,1.55
2023-05-19T05:32:52.516Z,1.83
2023-05-19T05:35:27.894Z,1.65
2023-05-19T05:38:14.377Z,1.52
2023-05-19T05:40:44.722Z,1.50
2023-05-19T05:45:48.283Z,1.33
2023-05-19T05:48:19.420Z,1.80
2023-05-19T05:50:57.550Z,1.30
2023-05-19T05:53:36.054Z,1.08
2023-05-19T05:56:16.109Z,1.92
2023-05-19T05:58:49.762Z,1.50
2023-05-19T06:01:24.237Z,1.33
2023-05-19T06:03:55.228Z,1.20
2023-05-19T06:06:25.643Z,1.75
2023-05-19T06:08:59.380Z,1.65
2023-05-19T06:11:35.182Z,1.48
2023-05-19T06:14:05.608Z,1.42
2023-05-19T06:16:38.062Z,1.27
2023-05-19T06:19:08.686Z,1.33
2023-05-19T06:21:39.045Z,0.98
2023-05-19T06:24:13.362Z,1.17
2023-05-19T06:26:44.947Z,1.27
2023-05-19T06:29:18.396Z,0.80
2023-05-19T06:31:49.826Z,1.15
2023-05-19T06:34:21.310Z,1.40
2023-05-19T06:36:51.652Z,1.42
2023-05-19T06:39:25.127Z,1.30
2023-05-19T06:41:55.503Z,1.33
2023-05-19T06:44:33.144Z,1.95
2023-05-19T06:47:03.457Z,1.45
2023-05-19T06:49:33.884Z,1.70
2023-05-19T06:52:04.381Z,2.08
2023-05-19T06:54:39.587Z,1.20
2023-05-19T06:57:12.591Z,1.23
2023-05-19T06:59:44.028Z,1.33
2023-05-19T07:02:15.575Z,1.13
2023-05-19T07:04:46.226Z,1.90
2023-05-19T07:07:19.200Z,1.52
2023-05-19T07:09:52.124Z,2.58
2023-05-19T07:12:22.418Z,0.93
2023-05-19T07:14:52.684Z,1.40
2023-05-19T07:17:24.814Z,1.05
2023-05-19T07:19:58.274Z,1.27
2023-05-19T07:22:31.339Z,1.45
2023-05-19T07:25:04.555Z,2.20
2023-05-19T07:27:34.941Z,1.42
2023-05-19T07:30:05.349Z,1.25
2023-05-19T07:32:38.694Z,1.52
2023-05-19T07:35:09.952Z,1.48
2023-05-19T07:37:41.796Z,2.95
2023-05-19T07:40:15.374Z,1.25
2023-05-19T07:42:45.674Z,1.50
2023-05-19T07:45:17.038Z,1.08
2023-05-19T07:47:47.547Z,1.48
2023-05-19T07:50:17.939Z,1.48
2023-05-19T07:52:50.645Z,1.83
2023-05-19T07:55:23.597Z,1.02
2023-05-19T07:57:57.558Z,1.40
2023-05-19T08:00:32.044Z,1.40
2023-05-19T08:03:06.185Z,1.38
2023-05-19T08:05:40.058Z,1.33
2023-05-19T08:08:17.351Z,1.33
2023-05-19T08:10:50.286Z,1.35
2023-05-19T08:13:20.726Z,2.58
2023-05-19T08:15:54.645Z,1.42
2023-05-19T08:18:28.158Z,1.13
2023-05-19T08:20:58.818Z,1.58
2023-05-19T08:23:29.354Z,1.38
2023-05-19T08:26:02.540Z,1.30
2023-05-19T08:28:35.070Z,1.73
2023-05-19T08:31:05.368Z,1.45
2023-05-19T08:33:35.724Z,1.80
2023-05-19T08:36:06.831Z,1.23
2023-05-19T08:38:37.142Z,1.33
2023-05-19T08:41:10.148Z,1.95
2023-05-19T08:43:40.669Z,1.75
2023-05-19T08:46:10.946Z,1.60
2023-05-19T08:48:45.301Z,1.48
2023-05-19T08:51:28.588Z,1.42
2023-05-19T08:54:07.571Z,1.05
2023-05-19T08:56:41.782Z,2.10
2023-05-19T08:59:12.777Z,1.67
2023-05-19T09:01:46.956Z,1.60
2023-05-19T09:04:18.566Z,1.25
2023-05-19T09:06:50.539Z,1.67
2023-05-19T09:09:20.801Z,1.38
2023-05-19T09:12:02.803Z,1.42
2023-05-19T09:14:33.334Z,1.70
2023-05-19T09:17:04.728Z,1.50
2023-05-19T09:19:37.766Z,1.65
2023-05-19T09:22:08.416Z,1.88
2023-05-19T09:24:40.710Z,1.90
2023-05-19T09:27:17.686Z,1.48
2023-05-19T09:29:48.074Z,1.58
2023-05-19T09:32:27.995Z,1.73
2023-05-19T09:34:59.083Z,1.98
2023-05-19T09:37:32.435Z,2.25
2023-05-19T09:40:03.156Z,2.45
2023-05-19T09:42:41.180Z,1.50
2023-05-19T09:45:12.492Z,1.55
2023-05-19T09:47:44.228Z,1.58
2023-05-19T09:50:17.316Z,1.83
2023-05-19T09:52:47.788Z,1.42
2023-05-19T09:55:19.008Z,2.92
2023-05-19T09:57:53.172Z,2.10
2023-05-19T10:00:24.387Z,1.30
2023-05-19T10:02:55.245Z,1.92
2023-05-19T10:05:26.663Z,1.45
2023-05-19T10:07:58.336Z,2.00
2023-05-19T10:10:31.452Z,1.80
2023-05-19T10:13:05.456Z,1.83
2023-05-19T10:15:40.700Z,1.58
2023-05-19T10:18:16.378Z,1.85
2023-05-19T10:20:47.247Z,1.63
2023-05-19T10:23:17.566Z,2.10
2023-05-19T10:25:49.486Z,1.50
2023-05-19T10:28:25.705Z,2.00
2023-05-19T10:31:05.693Z,2.08
2023-05-19T10:33:45.617Z,1.70
2023-05-19T10:36:36.632Z,1.60
2023-05-19T10:39:10.665Z,1.70
2023-05-19T10:41:49.733Z,2.10
2023-05-19T10:44:31.547Z,1.90
2023-05-19T10:47:07.887Z,2.10
2023-05-19T10:49:38.864Z,2.22
2023-05-19T10:52:29.964Z,1.65
2023-05-19T10:55:00.824Z,2.42
2023-05-19T10:57:34.972Z,2.08
2023-05-19T11:00:32.445Z,2.25
2023-05-19T11:03:21.052Z,2.25
2023-05-19T11:08:35.425Z,2.50
2023-05-19T11:11:19.126Z,2.05
2023-05-19T11:13:51.247Z,1.80
2023-05-19T11:16:35.763Z,1.65
2023-05-19T11:19:06.276Z,1.88
2023-05-19T11:21:50.747Z,1.83
2023-05-19T11:24:36.669Z,1.80
2023-05-19T11:27:22.710Z,1.85
2023-05-19T11:29:53.657Z,2.10
2023-05-19T11:32:33.816Z,1.42
2023-05-19T11:35:09.289Z,3.20
2023-05-19T11:37:43.083Z,2.28
2023-05-19T11:40:20.316Z,1.83
2023-05-19T11:42:50.621Z,1.85
2023-05-19T11:45:23.081Z,2.03
2023-05-19T11:48:02.608Z,2.20
2023-05-19T11:50:37.121Z,2.15
2023-05-19T11:53:12.423Z,2.25
2023-05-19T11:55:51.905Z,2.00
2023-05-19T11:58:29.456Z,1.83
2023-05-19T12:00:59.946Z,2.22
2023-05-19T12:03:33.384Z,1.92
2023-05-19T12:06:11.516Z,2.03
2023-05-19T12:08:44.437Z,1.98
2023-05-19T12:11:14.866Z,1.85
2023-05-19T12:13:45.387Z,1.63
2023-05-19T12:16:15.749Z,2.05
2023-05-19T12:18:48.776Z,2.22
2023-05-19T12:21:20.260Z,2.17
2023-05-19T12:23:52.934Z,2.13
2023-05-19T12:26:23.365Z,2.08
2023-05-19T12:28:56.775Z,1.98
2023-05-19T12:31:27.197Z,1.73
2023-05-19T12:34:02.382Z,2.13
2023-05-19T12:36:35.973Z,2.05
2023-05-19T12:39:09.765Z,1.85
2023-05-19T12:41:40.181Z,1.92
2023-05-19T12:44:21.524Z,2.10
2023-05-19T12:47:01.658Z,2.38
2023-05-19T12:49:37.613Z,1.83
2023-05-19T12:52:13.199Z,1.90
2023-05-19T12:54:43.974Z,2.38
2023-05-19T12:57:14.365Z,1.75
2023-05-19T12:59:47.185Z,2.03
2023-05-19T13:02:21.317Z,2.15
2023-05-19T13:04:54.654Z,2.70
2023-05-19T13:07:31.164Z,2.45
2023-05-19T13:10:01.735Z,2.13
2023-05-19T13:12:39.492Z,1.92
2023-05-19T13:15:14.833Z,2.15
2023-05-19T13:17:49.085Z,2.35
2023-05-19T13:20:22.176Z,2.17
2023-05-19T13:22:54.394Z,2.03
2023-05-19T13:25:36.661Z,2.22
2023-05-19T13:28:14.314Z,1.98
2023-05-19T13:30:46.633Z,2.53
2023-05-19T13:33:17.278Z,2.13
2023-05-19T13:35:50.771Z,2.20
2023-05-19T13:38:21.427Z,2.63
2023-05-19T13:40:53.896Z,1.63
2023-05-19T13:43:24.327Z,1.73
2023-05-19T13:45:55.177Z,2.10
2023-05-19T13:48:25.857Z,2.53
2023-05-19T13:50:59.872Z,2.03
2023-05-19T13:53:31.403Z,2.42
2023-05-19T13:56:03.786Z,2.35
2023-05-19T13:58:36.259Z,2.10
2023-05-19T14:01:07.099Z,1.95
2023-05-19T14:03:41.748Z,1.98
2023-05-19T14:06:14.894Z,2.35
2023-05-19T14:08:47.792Z,2.33
2023-05-19T14:11:21.873Z,2.08
2023-05-19T14:13:53.158Z,1.92
2023-05-19T14:16:26.373Z,3.22
2023-05-19T14:18:59.213Z,2.63
2023-05-19T14:21:32.821Z,2.13
2023-05-19T14:24:03.172Z,2.33
2023-05-19T14:26:33.744Z,2.38
2023-05-19T14:29:06.298Z,2.70
2023-05-19T14:31:40.261Z,3.13
2023-05-19T14:34:10.589Z,2.70
2023-05-19T14:36:43.771Z,2.95
2023-05-19T14:39:14.547Z,2.55
2023-05-19T14:41:50.080Z,2.72
2023-05-19T14:44:26.570Z,2.60
2023-05-19T14:46:56.919Z,2.75
2023-05-19T14:49:27.261Z,2.30
2023-05-19T14:52:02.581Z,2.58
2023-05-19T14:54:32.923Z,2.17
2023-05-19T14:57:03.574Z,2.72
2023-05-19T14:59:40.136Z,2.95
2023-05-19T15:02:13.288Z,2.70
2023-05-19T15:04:43.607Z,2.65
2023-05-19T15:07:21.899Z,2.60
2023-05-19T15:09:52.406Z,2.92
2023-05-19T15:12:25.795Z,2.60
2023-05-19T15:14:56.528Z,3.05
2023-05-19T15:17:26.860Z,3.13
2023-05-19T15:19:57.222Z,2.67
2023-05-19T15:22:31.317Z,3.10
2023-05-19T15:25:01.728Z,2.40
2023-05-19T15:27:32.215Z,2.85
2023-05-19T15:30:02.586Z,4.63
2023-05-19T15:32:32.928Z,2.90
2023-05-19T15:35:03.963Z,3.03
2023-05-19T15:37:36.780Z,2.75
2023-05-19T15:40:07.960Z,2.97
2023-05-19T15:42:38.558Z,3.28
2023-05-19T15:45:13.125Z,2.97
2023-05-19T15:47:45.803Z,2.97
2023-05-19T15:50:18.538Z,2.83
2023-05-19T15:52:59.463Z,3.20
2023-05-19T15:55:42.184Z,3.85
2023-05-19T15:58:15.815Z,2.88
2023-05-19T16:00:46.698Z,3.03
2023-05-19T16:03:17.024Z,2.60
2023-05-19T16:05:47.384Z,2.70
2023-05-19T16:08:20.282Z,2.60
2023-05-19T16:10:50.476Z,3.03
2023-05-19T16:13:20.816Z,2.60
2023-05-19T16:15:54.659Z,3.28
2023-05-19T16:18:32.051Z,3.17
2023-05-19T16:21:04.496Z,3.38
2023-05-19T16:23:38.757Z,3.88
2023-05-19T16:26:11.876Z,3.08
2023-05-19T16:28:42.132Z,3.08
2023-05-19T16:31:12.741Z,4.15
2023-05-19T16:33:43.686Z,3.97
2023-05-19T16:36:13.958Z,4.05
2023-05-19T16:38:47.064Z,3.75
2023-05-19T16:41:17.850Z,3.55
2023-05-19T16:43:48.191Z,3.22
2023-05-19T16:46:21.917Z,3.50
2023-05-19T16:48:55.109Z,4.55
2023-05-19T16:51:32.557Z,4.05
2023-05-19T16:54:05.482Z,4.07
2023-05-19T16:56:35.764Z,4.07
2023-05-19T16:59:11.296Z,4.03
2023-05-19T17:01:43.986Z,3.60
2023-05-19T17:04:16.415Z,3.78
2023-05-19T17:06:47.544Z,4.03
2023-05-19T17:09:25.257Z,3.78
2023-05-19T17:11:59.162Z,4.05
2023-05-19T17:14:29.690Z,4.03
2023-05-19T17:17:02.952Z,3.90
2023-05-19T17:19:33.353Z,3.58
2023-05-19T17:22:04.066Z,3.70
2023-05-19T17:24:36.930Z,4.35
2023-05-19T17:27:10.436Z,3.95
2023-05-19T17:29:41.845Z,4.18
2023-05-19T17:32:14.271Z,4.43
2023-05-19T17:34:44.639Z,3.70
2023-05-19T17:37:17.813Z,4.65
2023-05-19T17:42:24.228Z,4.35
2023-05-19T17:44:54.608Z,3.88
2023-05-19T17:47:29.715Z,4.70
2023-05-19T17:50:00.294Z,4.50
2023-05-19T17:52:32.022Z,3.97
2023-05-19T17:55:10.793Z,5.18
2023-05-19T17:57:43.445Z,6.38
2023-05-19T18:00:20.684Z,5.63
2023-05-19T18:02:52.150Z,6.18
2023-05-19T18:05:24.133Z,6.20
2023-05-19T18:07:59.252Z,5.65
2023-05-19T18:10:38.769Z,5.80
2023-05-19T18:13:16.943Z,4.70
2023-05-19T18:15:47.351Z,6.03
2023-05-19T18:18:20.761Z,8.75
2023-05-19T18:20:53.195Z,7.47
2023-05-19T18:23:26.459Z,7.20
2023-05-19T18:26:02.100Z,6.32
2023-05-19T18:28:32.838Z,5.95
2023-05-19T18:31:06.280Z,6.35
2023-05-19T18:33:39.298Z,6.90
2023-05-19T18:36:16.110Z,5.30
2023-05-19T18:38:47.592Z,5.90
2023-05-19T18:41:20.522Z,5.60
2023-05-19T18:43:51.167Z,5.35
2023-05-19T18:46:23.822Z,5.32
2023-05-19T18:48:58.476Z,5.07
2023-05-19T18:51:30.250Z,5.18
2023-05-19T18:54:00.606Z,5.65
2023-05-19T18:56:37.537Z,4.65
2023-05-19T18:59:07.941Z,4.35
2023-05-19T19:01:38.354Z,5.10
2023-05-19T19:04:09.266Z,4.97
2023-05-19T19:06:42.007Z,5.25
2023-05-19T19:09:13.034Z,5.32
2023-05-19T19:11:45.992Z,4.60
2023-05-19T19:14:16.331Z,4.53
2023-05-19T19:16:47.093Z,5.10
2023-05-19T19:19:20.982Z,4.35
2023-05-19T19:21:51.833Z,4.28
2023-05-19T19:24:24.408Z,4.00
2023-05-19T19:27:00.431Z,4.05
2023-05-19T19:29:31.166Z,4.20
2023-05-19T19:32:16.499Z,4.05
2023-05-19T19:34:49.606Z,3.92
2023-05-19T19:37:27.612Z,4.15
2023-05-19T19:39:58.496Z,3.90
2023-05-19T19:42:35.026Z,4.35
2023-05-19T19:45:08.318Z,4.68
2023-05-19T19:47:38.649Z,4.03
2023-05-19T19:50:10.423Z,4.82
2023-05-19T19:52:41.049Z,5.45
2023-05-19T19:55:12.894Z,4.45
2023-05-19T19:57:49.642Z,5.35
2023-05-19T20:00:21.228Z,4.78
2023-05-19T20:03:04.454Z,5.82
2023-05-19T20:05:36.290Z,4.40
2023-05-19T20:08:08.860Z,4.40
2023-05-19T20:10:39.443Z,5.68
2023-05-19T20:13:12.641Z,5.15
2023-05-19T20:15:44.103Z,4.97
2023-05-19T20:18:17.898Z,4.75
2023-05-19T20:20:50.235Z,4.60
2023-05-19T20:23:20.647Z,5.90
2023-05-19T20:26:10.359Z,4.78
2023-05-19T20:28:45.356Z,5.32
2023-05-19T20:31:15.916Z,5.38
2023-05-19T20:33:47.721Z,5.18
2023-05-19T20:36:18.957Z,5.80
2023-05-19T20:39:00.964Z,5.55
2023-05-19T20:41:34.789Z,7.07
2023-05-19T20:44:12.834Z,8.45
2023-05-19T20:46:47.051Z,7.45
2023-05-19T20:49:17.368Z,7.22
2023-05-19T20:51:50.045Z,5.65
2023-05-19T20:54:20.502Z,5.70
2023-05-19T20:56:50.838Z,5.43
2023-05-19T20:59:32.233Z,5.47
2023-05-19T21:02:03.738Z,5.18
2023-05-19T21:04:37.211Z,4.60
2023-05-19T21:07:10.670Z,5.13
2023-05-19T21:09:42.973Z,5.10
2023-05-19T21:12:16.435Z,5.45
2023-05-19T21:14:52.022Z,5.68
2023-05-19T21:17:22.721Z,5.28
2023-05-19T21:19:58.268Z,5.78
2023-05-19T21:22:29.440Z,5.57
2023-05-19T21:25:00.495Z,5.07
2023-05-19T21:27:32.460Z,5.20
2023-05-19T21:30:13.637Z,5.53
2023-05-19T21:32:46.199Z,4.65
2023-05-19T21:35:21.767Z,5.00
2023-05-19T21:37:52.264Z,5.03
2023-05-19T21:40:22.722Z,5.03
2023-05-19T21:42:53.925Z,4.45
2023-05-19T21:45:29.700Z,4.97
2023-05-19T21:48:02.927Z,5.32
2023-05-19T21:50:43.689Z,5.03
2023-05-19T21:53:13.946Z,5.72
2023-05-19T21:58:14.179Z,5.03
2023-05-19T22:00:52.855Z,5.07
2023-05-19T22:03:27.096Z,5.78
2023-05-19T22:05:58.328Z,5.07
2023-05-19T22:08:28.594Z,5.10
2023-05-19T22:10:59.028Z,5.18
2023-05-19T22:13:34.375Z,5.35
2023-05-19T22:16:10.408Z,4.95
2023-05-19T22:18:41.044Z,5.20
2023-05-19T22:21:13.734Z,5.45
2023-05-19T22:23:44.058Z,6.90
2023-05-19T22:28:47.516Z,5.30
2023-05-19T22:31:20.973Z,5.30
2023-05-19T22:33:53.915Z,5.78
2023-05-19T22:36:24.321Z,5.15
2023-05-19T22:38:54.845Z,6.65
2023-05-19T22:41:27.895Z,5.80
2023-05-19T22:43:58.258Z,5.88
2023-05-19T22:46:33.087Z,6.50
2023-05-19T22:49:06.371Z,5.43
2023-05-19T22:51:39.643Z,6.25
2023-05-19T22:54:10.707Z,5.80
2023-05-19T22:56:44.454Z,4.88
2023-05-19T22:59:19.529Z,4.93
2023-05-19T23:01:52.465Z,5.22
2023-05-19T23:04:22.809Z,5.28
2023-05-19T23:06:55.414Z,5.28
2023-05-19T23:09:27.696Z,6.00
2023-05-19T23:12:04.020Z,5.97
2023-05-19T23:14:34.516Z,5.25
2023-05-19T23:17:13.211Z,5.75
2023-05-19T23:19:44.979Z,6.07
2023-05-19T23:22:17.543Z,5.47
2023-05-19T23:24:47.940Z,6.28
2023-05-19T23:27:18.185Z,5.95
2023-05-19T23:32:23.034Z,5.65
2023-05-19T23:34:56.165Z,5.85
2023-05-19T23:37:26.745Z,5.60
2023-05-19T23:40:02.082Z,6.82
2023-05-19T23:42:32.445Z,5.65
2023-05-19T23:45:05.714Z,6.18
2023-05-19T23:47:43.119Z,5.47
2023-05-19T23:50:14.065Z,6.13
2023-05-19T23:52:44.389Z,5.88
2023-05-19T23:57:46.038Z,5.95
